Boscobel Aerodrome


Codes: MKBS/OCJ
Name: Boscobel Aerodrome
City: Ocho Rios
Country: Jamaica
Elevation: 90 ft.
Website:
Wikipedia:

Photos at Boscobel Aerodrome


   Photos courtesy of SpottingLog. You can add your own sightings and photos by signing up for a free trial today.



No photos found.

Weather at Boscobel Aerodrome


Time (UTC)DescriptionTempratureWindCloud coverageVisibilityPressureHumidity
13-Jun-2024 03:00Broken Clouds29°C11 mph, SE75%10000m1013hPa85%
13-Jun-2024 06:00Overcast Clouds28°C9 mph, SE88%10000m1013hPa86%
13-Jun-2024 09:00Overcast Clouds27°C11 mph, SE100%10000m1012hPa86%
13-Jun-2024 12:00Overcast Clouds28°C11 mph, SE100%10000m1014hPa82%
13-Jun-2024 15:00Broken Clouds30°C13 mph, E54%10000m1014hPa71%
13-Jun-2024 18:00Broken Clouds31°C18 mph, E70%10000m1013hPa70%
13-Jun-2024 21:00Scattered Clouds30°C16 mph, E45%10000m1012hPa74%
14-Jun-2024 00:00Scattered Clouds28°C11 mph, E25%10000m1013hPa84%
14-Jun-2024 03:00Few Clouds27°C13 mph, SE18%10000m1014hPa85%
14-Jun-2024 06:00Few Clouds27°C9 mph, SE15%10000m1013hPa83%
14-Jun-2024 09:00Few Clouds26°C9 mph, SE22%10000m1012hPa84%
14-Jun-2024 12:00Few Clouds28°C11 mph, SE14%10000m1013hPa80%
14-Jun-2024 15:00Scattered Clouds30°C13 mph, E27%10000m1013hPa69%
14-Jun-2024 18:00Broken Clouds30°C18 mph, E51%10000m1012hPa72%
14-Jun-2024 21:00Light Rain29°C13 mph, E100%10000m1010hPa78%
15-Jun-2024 00:00Light Rain28°C13 mph, E91%10000m1011hPa86%
15-Jun-2024 03:00Overcast Clouds27°C9 mph, SE92%10000m1013hPa87%
15-Jun-2024 06:00Overcast Clouds27°C9 mph, SE94%10000m1013hPa86%
15-Jun-2024 09:00Overcast Clouds26°C9 mph, SE97%10000m1012hPa84%
15-Jun-2024 12:00Overcast Clouds27°C9 mph, SE92%10000m1013hPa78%
15-Jun-2024 15:00Broken Clouds30°C16 mph, E77%10000m1013hPa69%
15-Jun-2024 18:00Overcast Clouds30°C18 mph, E90%10000m1012hPa73%
15-Jun-2024 21:00Broken Clouds29°C18 mph, E62%10000m1011hPa73%
16-Jun-2024 00:00Broken Clouds28°C13 mph, E58%10000m1012hPa78%
16-Jun-2024 03:00Overcast Clouds27°C11 mph, SE97%10000m1013hPa85%
16-Jun-2024 06:00Overcast Clouds27°C9 mph, SE99%10000m1013hPa83%
16-Jun-2024 09:00Overcast Clouds26°C11 mph, SE100%10000m1012hPa86%
16-Jun-2024 12:00Overcast Clouds27°C16 mph, E100%10000m1013hPa83%
16-Jun-2024 15:00Overcast Clouds30°C18 mph, E100%10000m1013hPa75%
16-Jun-2024 18:00Light Rain29°C20 mph, E95%10000m1012hPa78%
16-Jun-2024 21:00Light Rain29°C16 mph, E100%10000m1011hPa81%
17-Jun-2024 00:00Light Rain28°C16 mph, E100%10000m1012hPa84%
17-Jun-2024 03:00Overcast Clouds27°C11 mph, SE100%10000m1014hPa86%
17-Jun-2024 06:00Light Rain26°C11 mph, SE100%10000m1013hPa87%
17-Jun-2024 09:00Overcast Clouds26°C9 mph, SE100%10000m1012hPa87%
17-Jun-2024 12:00Overcast Clouds27°C9 mph, SE100%10000m1013hPa83%
17-Jun-2024 15:00Overcast Clouds30°C13 mph, E100%10000m1013hPa69%
17-Jun-2024 18:00Overcast Clouds31°C20 mph, E99%10000m1011hPa66%
17-Jun-2024 21:00Overcast Clouds30°C16 mph, E100%10000m1011hPa69%
18-Jun-2024 00:00Overcast Clouds28°C11 mph, SE100%10000m1012hPa76%